Flight Track Log - Related Links

Times and Time Zones

All times are in EDT time to prevent confusion due to time zone crossing. See the AWE403 flight status page for this flight to view local times or setup timezone preferences in your user account.

Time Position Orientation Groundspeed Altitude Reporting Facility
EDT Latitude Longitude Course Direction KTS MPH feet Rate Location/Type
02:20PM 37.6500 -122.3500 38° Northeast 159 183 2,000  Level Northern Cal TRACON
02:21PM 37.6833 -122.3000 50° Northeast 187 215 3,100 1,300 Climbing Northern Cal TRACON
02:22PM 37.7333 -122.2333 47° Northeast 284 327 4,600 1,900 Climbing Northern Cal TRACON
02:23PM 37.7833 -122.1833 38° Northeast 273 314 6,900 2,400 Climbing Northern Cal TRACON
02:24PM 38.1258 -121.8576 38° Northeast  Level FlightAware Approximate
02:24PM 37.8500 -122.1333 31° Northeast 292 336 9,200  Level Northern Cal TRACON
02:25PM 38.2300 -121.7534 38° Northeast  Level FlightAware Approximate
02:25PM 37.8825 -122.0914 46° Northeast 292 336 10,300  Level Oakland Center
02:26PM 37.9747 -122.0036 37° Northeast 350 403 11,600 1,561 Climbing Oakland Center
02:27PM 38.0600 -121.9219 37° Northeast 383 441 13,500 1,854 Climbing Oakland Center
02:28PM 38.1481 -121.8381 37° Northeast 395 455 15,400 1,742 Climbing Oakland Center
02:29PM 38.2375 -121.7517 37° Northeast 404 465 17,100 1,366 Climbing Oakland Center
02:30PM 38.3300 -121.6631 37° Northeast 415 478 18,200 1,268 Climbing Oakland Center
02:31PM 38.4244 -121.5703 38° Northeast 425 489 19,700 1,268 Climbing Oakland Center
02:32PM 38.5044 -121.4489 50° Northeast 451 519 20,800 1,268 Climbing Oakland Center
02:33PM 38.5956 -121.2928 53° Northeast 457 526 22,300 1,317 Climbing Oakland Center
02:34PM 38.6736 -121.1575 54° Northeast 469 540 23,500 1,073 Climbing Oakland Center
02:35PM 38.7439 -121.0356 54° Northeast 471 542 24,500 927 Climbing Oakland Center
02:36PM 38.8236 -120.8983 53° Northeast 477 549 25,400 976 Climbing Oakland Center
02:37PM 38.9200 -120.7303 54° Northeast 486 559 26,500 968 Climbing Oakland Center
02:38PM 39.0019 -120.5889 53° Northeast 492 566 27,400 829 Climbing Oakland Center
02:39PM 39.0842 -120.4447 54° Northeast 498 573 28,200 927 Climbing Oakland Center
02:40PM 39.1669 -120.3008 53° Northeast 499 574 29,300 976 Climbing Oakland Center
02:41PM 39.2481 -120.1567 54° Northeast 496 571 30,200 1,024 Climbing Oakland Center
02:42PM 39.3347 -119.9947 55° Northeast 491 565 31,400 1,024 Climbing Oakland Center
02:43PM 39.4111 -119.8614 53° Northeast 482 555 32,300 683 Climbing Oakland Center
02:44PM 39.4858 -119.7250 55° Northeast 484 557 32,800 339 Climbing Oakland Center
02:45PM 39.5678 -119.5600 57° Northeast 489 563 33,000 98 Climbing Oakland Center
02:46PM 39.6314 -119.4125 61° Northeast 491 565 33,000  Level Oakland Center
02:47PM 39.7056 -119.2417 61° Northeast 488 562 33,000  Level Oakland Center
02:48PM 39.7706 -119.0942 60° Northeast 490 564 33,000  Level Oakland Center
02:49PM 39.8300 -118.9467 62° Northeast 485 558 33,000  Level Oakland Center
02:50PM 39.9022 -118.7742 61° Northeast 484 557 33,000  Level Oakland Center
02:51PM 39.9642 -118.6264 61° Northeast 485 558 33,000  Level Oakland Center
02:53PM 40.0328 -118.4533 63° Northeast 482 555 33,000  Level Oakland Center
02:54PM 40.0942 -118.3039 62° Northeast 485 558 33,000  Level Oakland Center
02:55PM 40.1650 -118.1294 62° Northeast 486 559 33,000  Level Oakland Center
02:56PM 40.2253 -117.9806 62° Northeast 484 557 33,000  Level Oakland Center
02:57PM 40.2858 -117.8311 62° Northeast 485 558 33,000  Level Oakland Center
02:58PM 40.3561 -117.6561 62° Northeast 485 558 33,000  Level Oakland Center
02:59PM 40.4161 -117.5067 62° Northeast 483 556 33,000  Level Oakland Center
03:00PM 40.4864 -117.3297 62° Northeast 485 558 33,000  Level Oakland Center
03:01PM 40.5469 -117.1794 62° Northeast 485 558 33,000  Level Oakland Center
03:02PM 40.6061 -117.0247 63° Northeast 488 562 33,000  Level Oakland Center
03:03PM 40.6764 -116.8453 63° Northeast 488 562 33,000  Level Oakland Center
03:04PM 40.7356 -116.6914 63° Northeast 488 562 33,000  Level Oakland Center
03:05PM 40.8153 -116.4867 63° Northeast 487 560 33,000  Level Salt Lake Center
03:06PM 40.8753 -116.3317 63° Northeast 489 563 33,000  Level Salt Lake Center
03:07PM 40.9336 -116.1767 63° Northeast 489 563 33,000  Level Salt Lake Center
03:08PM 40.9972 -115.9942 65° Northeast 490 564 33,000  Level Salt Lake Center
03:09PM 41.0275 -115.8203 77° East 500 575 33,000  Level Salt Lake Center
03:10PM 41.0550 -115.6158 80° East 502 578 33,000  Level Salt Lake Center
03:11PM 41.0789 -115.4428 80° East 502 578 33,000  Level Salt Lake Center
03:12PM 41.1075 -115.2414 79° East 501 577 33,000  Level Salt Lake Center
03:13PM 41.1303 -115.0694 80° East 499 574 33,000  Level Salt Lake Center
03:14PM 41.1536 -114.8967 80° East 499 574 33,000  Level Salt Lake Center
03:15PM 41.1789 -114.7144 79° East 495 570 33,000  Level Salt Lake Center
03:16PM 41.2022 -114.5356 80° East 494 568 33,000  Level Salt Lake Center
03:17PM 41.2294 -114.3203 80° East 493 567 33,000  Level Salt Lake Center
03:18PM 41.2539 -114.1419 80° East 493 567 33,000  Level Salt Lake Center
03:19PM 41.2769 -113.9622 80° East 493 567 33,000  Level Salt Lake Center
03:20PM 41.2992 -113.7819 81° East 494 568 33,000  Level Salt Lake Center
03:22PM 41.3214 -113.6014 81° East 494 568 33,000  Level Salt Lake Center
03:23PM 41.3428 -113.4225 81° East 493 567 33,000  Level Salt Lake Center
03:24PM 41.3650 -113.2439 81° East 492 566 33,000  Level Salt Lake Center
03:25PM 41.3900 -113.0292 81° East 490 564 33,000  Level Salt Lake Center
03:26PM 41.4117 -112.8486 81° East 491 565 33,000  Level Salt Lake Center
03:27PM 41.4325 -112.6692 81° East 491 565 33,000  Level Salt Lake Center
03:28PM 41.4522 -112.4906 82° East 489 563 33,000  Level Salt Lake Center
03:29PM 41.4733 -112.3122 81° East 488 562 33,000  Level Salt Lake Center
03:30PM 41.4922 -112.1331 82° East 488 562 33,000  Level Salt Lake Center
03:31PM 41.5125 -111.9536 81° East 487 560 33,000  Level Salt Lake Center
03:32PM 41.5317 -111.7736 82° East 487 560 33,000  Level Salt Lake Center
03:33PM 41.5542 -111.5603 82° East 485 558 33,000  Level Salt Lake Center
03:34PM 41.5725 -111.3839 82° East 481 554 33,000  Level Salt Lake Center
03:35PM 41.5897 -111.2086 82° East 478 550 33,000  Level Salt Lake Center
03:36PM 41.6086 -111.0342 82° East 477 549 33,000  Level Salt Lake Center
03:37PM 41.6253 -110.8622 83° East 477 549 33,000  Level Salt Lake Center
03:38PM 41.6439 -110.6647 83° East 480 552 33,000  Level Salt Lake Center
03:39PM 41.6606 -110.4944 82° East 483 556 33,000  Level Salt Lake Center
03:40PM 41.6794 -110.2969 83° East 481 554 33,000  Level Salt Lake Center
03:41PM 41.6950 -110.1275 83° East 481 554 33,000  Level Salt Lake Center
03:42PM 41.7128 -109.9294 83° East 481 554 33,000  Level Salt Lake Center
03:43PM 41.7292 -109.7592 83° East 481 554 33,000  Level Salt Lake Center
03:44PM 41.7469 -109.5597 83° East 481 554 33,000  Level Salt Lake Center
03:45PM 41.7611 -109.3900 84° East 480 552 33,000  Level Salt Lake Center
03:46PM 41.7764 -109.2211 83° East 479 551 33,000  Level Salt Lake Center
03:47PM 41.7917 -109.0231 84° East 476 548 33,000  Level Salt Lake Center
03:48PM 41.8061 -108.8539 83° East 476 548 33,000  Level Salt Lake Center
03:49PM 41.8225 -108.6536 84° East 478 550 33,000  Level Salt Lake Center
03:50PM 41.8353 -108.4828 84° East 478 550 33,000 49 Level Salt Lake Center
03:51PM 41.8481 -108.3103 84° East 484 557 33,100  Climbing Salt Lake Center
03:52PM 41.8628 -108.1092 84° East 484 557 33,000 -48 Descending Salt Lake Center
03:53PM 41.8772 -107.9403 83° East 481 554 33,000  Level Salt Lake Center
03:54PM 41.8894 -107.7400 85° East 480 552 33,000  Level Salt Lake Center
03:56PM 41.9014 -107.5703 85° East 479 551 33,000  Level Salt Lake Center
03:57PM 41.9156 -107.3719 84° East 479 551 33,000  Level Salt Lake Center
03:58PM 41.9275 -107.2028 85° East 478 550 33,000  Level Salt Lake Center
03:59PM 41.9381 -107.0328 85° East 477 549 33,000  Level Salt Lake Center
04:00PM 41.9489 -106.8350 86° East 476 548 33,000  Level Salt Lake Center
04:01PM 41.9611 -106.6461 85° East 474 545 33,000  Level Salt Lake Center
04:02PM 41.9706 -106.4772 86° East 473 544 33,000  Level Salt Lake Center
04:03PM 41.9811 -106.3103 85° East 473 544 33,000  Level Salt Lake Center
04:04PM 41.9933 -106.1142 85° East 473 544 33,000  Level Salt Lake Center
04:05PM 42.0019 -105.9456 86° East 473 544 33,000  Level Salt Lake Center
04:06PM 42.0175 -105.7247 85° East 470 541 33,000 129 Level Denver Center
04:07PM 42.0297 -105.5331 85° East 465 535 33,300 629 Climbing Denver Center
04:08PM 42.0386 -105.3728 86° East 457 526 34,300 774 Climbing Denver Center
04:09PM 42.0492 -105.1844 86° East 455 524 34,900 339 Climbing Denver Center
04:10PM 42.0583 -105.0233 86° East 455 524 35,000 48 Climbing Denver Center
04:11PM 42.0689 -104.8325 86° East 456 525 35,000  Level Denver Center
04:12PM 42.0775 -104.6703 86° East 457 526 35,000  Level Denver Center
04:13PM 42.0864 -104.4806 86° East 457 526 35,000  Level Denver Center
04:14PM 42.0950 -104.3189 86° East 457 526 35,000  Level Denver Center
04:15PM 42.1036 -104.1281 86° East 458 527 35,000  Level Denver Center
04:16PM 42.1133 -103.9369 86° East 459 528 35,000  Level Denver Center
04:17PM 42.1217 -103.7719 86° East 461 531 35,000  Level Denver Center
04:18PM 42.1292 -103.5800 87° East 461 531 35,000  Level Denver Center
04:20PM 42.1356 -103.4139 87° East 462 532 35,000  Level Denver Center
04:21PM 42.1431 -103.2486 86° East 463 533 35,000  Level Denver Center
04:22PM 42.1508 -103.0547 87° East 464 534 35,000  Level Denver Center
04:23PM 42.1569 -102.8897 87° East 464 534 35,000  Level Denver Center
04:24PM 42.1633 -102.6983 87° East 462 532 35,000  Level Denver Center
04:25PM 42.1689 -102.5336 87° East 462 532 35,000  Level Denver Center
04:26PM 42.1764 -102.3417 87° East 462 532 35,000  Level Denver Center
04:27PM 42.1833 -102.1592 87° East 467 537 35,000  Level Denver Center
04:28PM 42.1875 -101.9931 88° East 467 537 35,000  Level Denver Center
04:29PM 42.1933 -101.7992 88° East 464 534 35,000  Level Denver Center
04:30PM 42.1967 -101.6336 88° East 464 534 35,000  Level Denver Center
04:31PM 42.2022 -101.4403 88° East 463 533 35,000  Level Denver Center
04:32PM 42.2064 -101.2750 88° East 462 532 35,000  Level Denver Center
04:33PM 42.2097 -101.0836 89° East 457 526 35,000  Level Denver Center
04:34PM 42.2131 -100.9206 88° East 457 526 35,000  Level Denver Center
04:35PM 42.2169 -100.7561 88° East 456 525 35,000  Level Denver Center
04:36PM 42.2203 -100.5658 89° East 456 525 35,000  Level Denver Center
04:37PM 42.2222 -100.4028 89° East 455 524 35,000  Level Denver Center
04:38PM 42.2253 -100.2094 89° East 456 525 35,000  Level Denver Center
04:39PM 42.2281 -100.0442 89° East 457 526 35,000  Level Denver Center
04:40PM 42.2294 -99.8497 89° East 462 532 35,000  Level Denver Center
04:41PM 42.2314 -99.6789 89° East 462 532 35,000 -194 Level Denver Center
04:42PM 42.2331 -99.5056 89° East 462 532 34,600 -677 Descending Denver Center
04:43PM 42.2342 -99.3350 89° East 456 525 33,600 -919 Descending Denver Center
04:44PM 42.2353 -99.1658 89° East 455 524 32,700 -1,016 Descending Denver Center
04:45PM 42.2342 -98.9597 90° East 454 522 31,500 -1,065 Descending Denver Center
04:46PM 42.2333 -98.7822 90° East 468 539 30,500 -968 Descending Denver Center
04:47PM 42.2328 -98.6083 90° East 468 539 29,500 -930 Descending Denver Center
04:49PM 42.2328 -98.4339 90° East 463 533 28,500 -930 Descending Minneapolis Center
04:50PM 42.2300 -98.2614 91° East 461 531 27,500 -732 Descending Minneapolis Center
04:51PM 42.2244 -98.0586 92° East 454 522 27,000 -244 Descending Minneapolis Center
04:52PM 42.1786 -97.8906 110° East 471 542 27,000  Level Minneapolis Center
04:53PM 42.1392 -97.7428 110° East 471 542 27,000  Level Minneapolis Center
04:54PM 42.0958 -97.5781 109° East 470 541 27,000  Level Minneapolis Center
04:55PM 42.0556 -97.3794 105° East 466 536 27,000  Level Minneapolis Center
04:56PM 42.0567 -97.2133 89° East 447 514 27,000  Level Minneapolis Center
04:57PM 42.0556 -97.0478 90° East 445 512 27,000  Level Minneapolis Center
04:58PM 42.0564 -96.8808 90° East 445 512 27,000  Level Minneapolis Center
04:59PM 42.0550 -96.7150 91° East 445 512 27,000  Level Minneapolis Center
05:00PM 42.0536 -96.5483 91° East 445 512 27,000  Level Minneapolis Center
05:01PM 42.0531 -96.3828 90° East 445 512 27,000  Level Minneapolis Center
05:02PM 42.0519 -96.2161 90° East 445 512 27,000  Level Minneapolis Center
05:03PM 42.0503 -96.0175 91° East 443 510 27,000  Level Minneapolis Center
05:04PM 42.0486 -95.8514 91° East 443 510 27,000 -97 Level Minneapolis Center
05:05PM 42.0472 -95.6858 91° East 443 510 26,800 -919 Descending Minneapolis Center
05:06PM 42.0447 -95.5253 91° East 432 497 25,100 -878 Descending Minneapolis Center
05:07PM 42.0419 -95.3678 91° East 425 489 25,000 -49 Descending Minneapolis Center
05:08PM 42.0403 -95.2097 91° East 425 489 25,000  Level Minneapolis Center
05:09PM 42.0372 -95.0519 91° East 421 484 25,000  Level Minneapolis Center
05:10PM 42.0342 -94.8947 91° East 421 484 25,000  Level Minneapolis Center
05:11PM 42.0319 -94.7381 91° East 421 484 25,000  Level Minneapolis Center
05:12PM 42.0272 -94.5489 92° East 421 484 25,000  Level Minneapolis Center
05:13PM 42.0236 -94.3908 92° East 421 484 25,000  Level Minneapolis Center
05:14PM 42.0194 -94.2333 92° East 422 486 25,000  Level Minneapolis Center
05:15PM 42.0164 -94.0756 91° East 422 486 25,000 -242 Level Minneapolis Center
05:16PM 42.0117 -93.9239 92° East 411 473 24,500 -780 Descending Minneapolis Center
05:17PM 42.0075 -93.7689 92° East 410 472 23,400 -732 Descending Minneapolis Center
05:18PM 42.0039 -93.6178 92° East 409 471 23,000 -195 Descending Minneapolis Center
05:19PM 41.9989 -93.4628 92° East 414 476 23,000  Level Minneapolis Center
05:20PM 41.9936 -93.2775 92° East 415 478 23,000  Level Minneapolis Center
05:21PM 41.9878 -93.1231 93° East 415 478 23,000  Level Minneapolis Center
05:23PM 41.9819 -92.9689 93° East 415 478 23,000  Level Minneapolis Center
05:24PM 41.9758 -92.7994 93° East 415 478 23,000  Level Minneapolis Center
05:24PM 41.9733 -92.7222 92° East 417 480 23,000  Level Chicago Center
05:25PM 41.9664 -92.5364 93° East 418 481 23,000  Level Chicago Center
05:26PM 41.9606 -92.3831 93° East 416 479 23,000  Level Chicago Center
05:27PM 41.9539 -92.2292 93° East 418 481 23,000  Level Chicago Center
05:28PM 41.9472 -92.0761 93° East 416 479 23,000  Level Chicago Center
05:29PM 41.9406 -91.9219 93° East 417 480 23,000  Level Chicago Center
05:30PM 41.9322 -91.7372 93° East 418 481 23,000  Level Chicago Center
05:31PM 41.9250 -91.5822 94° East 421 484 23,000  Level Chicago Center
05:32PM 41.9181 -91.4267 93° East 422 486 23,000  Level Chicago Center
05:34PM 41.9094 -91.2731 94° East 419 482 23,000  Level Chicago Center
05:35PM 41.9003 -91.0875 94° East 419 482 23,000  Level Chicago Center
05:36PM 41.8919 -90.9328 94° East 421 484 23,000  Level Chicago Center
05:37PM 41.8836 -90.7769 94° East 421 484 23,000  Level Chicago Center
05:38PM 41.8753 -90.6200 94° East 425 489 23,000  Level Chicago Center
05:39PM 41.8625 -90.4308 95° East 429 494 23,000  Level Chicago Center
05:40PM 41.8556 -90.2708 93° East 432 497 23,000  Level Chicago Center
05:41PM 41.8453 -90.1083 95° East 439 505 23,000  Level Chicago Center
05:42PM 41.8344 -89.9450 95° East 443 510 23,000  Level Chicago Center
05:43PM 41.8236 -89.7633 95° East 444 511 23,000  Level Chicago Center
05:44PM 41.8122 -89.5953 95° East 450 518 23,000  Level Chicago Center
05:45PM 41.8022 -89.4269 95° East 454 522 23,000  Level Chicago Center
05:46PM 41.7892 -89.2219 95° East 460 529 23,000  Level Chicago Center
05:47PM 41.7767 -89.0508 96° East 462 532 23,000  Level Chicago Center
05:48PM 41.7650 -88.8828 95° East 457 526 23,000  Level Chicago Center
05:49PM 41.7525 -88.7136 96° East 457 526 23,000  Level Chicago Center
05:50PM 41.7394 -88.5453 96° East 454 522 23,000  Level Chicago Center
05:51PM 41.7283 -88.3733 95° East 460 529 23,000  Level Chicago Center
05:52PM 41.7114 -88.1706 96° East 456 525 23,000  Level Chicago Center
05:53PM 41.6989 -88.0006 96° East 454 522 23,000  Level Chicago Center
05:54PM 41.6856 -87.8300 96° East 456 525 23,000  Level Chicago Center
05:55PM 41.6708 -87.6592 97° East 458 527 23,000  Level Chicago Center
05:56PM 41.6567 -87.4911 96° East 455 524 23,000  Level Chicago Center
05:57PM 41.6428 -87.3189 96° East 463 533 23,000  Level Chicago Center
05:58PM 41.6267 -87.1472 97° East 465 535 23,000  Level Chicago Center
05:59PM 41.6089 -86.9425 97° East 462 532 23,000  Level Chicago Center
06:01PM 41.5939 -86.7714 97° East 463 533 23,000  Level Chicago Center
06:02PM 41.5806 -86.6186 97° East 466 536 23,000  Level Chicago Center
06:03PM 41.5617 -86.4156 97° East 462 532 23,000  Level Chicago Center
06:04PM 41.5458 -86.2456 97° East 462 532 23,000  Level Chicago Center
06:05PM 41.5294 -86.0747 97° East 465 535 23,000  Level Chicago Center
06:06PM 41.5083 -85.9081 100° East 460 529 23,000  Level Chicago Center
06:07PM 41.4803 -85.7078 101° East 460 529 23,000  Level Chicago Center
06:08PM 41.4586 -85.5394 100° East 468 539 23,000  Level Chicago Center
06:09PM 41.4358 -85.3758 100° East 462 532 23,000  Level Chicago Center
06:10PM 41.4128 -85.2114 101° East 461 531 23,000  Level Chicago Center
06:11PM 41.3842 -85.0133 101° East 459 528 23,000  Level Chicago Center
06:12PM 41.3603 -84.8475 101° East 459 528 23,000  Level Chicago Center
06:13PM 41.3367 -84.6833 101° East 455 524 23,000 677 Level Chicago Center
06:14PM 41.3122 -84.5172 101° East 458 527 24,400 1,440 Climbing Chicago Center
06:15PM 41.2864 -84.3500 102° East 464 534 26,000 1,403 Climbing Chicago Center
06:16PM 41.2603 -84.1783 101° East 474 545 27,300 1,415 Climbing Chicago Center
06:17PM 41.2294 -83.9686 101° East 483 556 28,900 1,258 Climbing Chicago Center
06:18PM 41.2019 -83.7911 102° East 491 565 29,900 1,065 Climbing Chicago Center
06:19PM 41.1803 -83.6081 99° East 500 575 31,100 1,087 Climbing Chicago Center
06:20PM 41.1586 -83.3583 96° East 506 582 32,400 826 Climbing Cleveland Center
06:21PM 41.1361 -83.1672 99° East 512 589 33,000 290 Climbing Cleveland Center
06:22PM 41.1042 -82.9836 103° East 509 586 33,000  Level Cleveland Center
06:24PM 41.0728 -82.7989 103° East 509 586 33,000  Level Cleveland Center
06:25PM 41.0408 -82.6136 103° East 510 587 33,000  Level Cleveland Center
06:26PM 41.0083 -82.4292 103° East 511 588 33,000  Level Cleveland Center
06:27PM 40.9764 -82.2456 103° East 510 587 33,000  Level Cleveland Center
06:28PM 40.9386 -82.0339 103° East 510 587 33,000  Level Cleveland Center
06:29PM 40.9058 -81.8531 103° East 509 586 33,000  Level Cleveland Center
06:31PM 40.8406 -81.4903 103° East 508 585 33,000  Level Cleveland Center
06:32PM 40.8069 -81.3064 104° East 510 587 33,000  Level Cleveland Center
06:33PM 40.7653 -81.0908 104° East 514 592 33,000  Level Cleveland Center
06:34PM 40.7344 -80.9294 104° East 514 592 33,000  Level Cleveland Center
06:35PM 40.6914 -80.7042 104° East 523 602 33,000  Level Cleveland Center
06:36PM 40.6578 -80.5297 104° East 526 605 33,000  Level Cleveland Center
06:37PM 40.6175 -80.3217 104° East 526 605 33,000  Level Cleveland Center
06:38PM 40.5817 -80.1392 104° East 523 602 33,000  Level Cleveland Center
06:39PM 40.5436 -79.9475 105° East 522 601 33,000  Level Cleveland Center
06:40PM 40.5067 -79.7636 105° East 515 593 33,000  Level Cleveland Center
06:41PM 40.4694 -79.5806 105° East 515 593 33,000  Level Cleveland Center
06:42PM 40.4325 -79.3972 105° East 515 593 33,000  Level Cleveland Center
06:43PM 40.3936 -79.2006 104° East 514 592 33,000  Level Cleveland Center
06:44PM 40.3564 -79.0192 105° East 517 595 33,000 -48 Level Cleveland Center
06:45PM 40.3200 -78.7967 102° East 528 608 32,900 -768 Descending Cleveland Center
06:46PM 40.3164 -78.6036 91° East 534 615 31,400 -1,536 Descending Cleveland Center
06:47PM 40.3161 -78.4122 90° East 535 616 29,700 -1,680 Descending Cleveland Center
06:48PM 40.3144 -78.2256 91° East 527 606 27,900 -2,016 Descending Cleveland Center
06:49PM 40.3142 -78.0094 90° East 500 575 25,500 -1,440 Descending Cleveland Center
06:51PM 40.3267 -77.8475 84° East 458 527 24,900 -737 Descending Cleveland Center
06:51PM 40.3403 -77.7236 82° East 455 524 24,100 -1,018 Descending New York Center
06:52PM 40.3369 -77.5653 92° East 444 511 23,000 -1,059 Descending New York Center
06:53PM 40.3142 -77.4131 101° East 425 489 22,000 -1,000 Descending New York Center
06:54PM 40.2856 -77.2553 103° East 420 483 21,000 -1,008 Descending New York Center
06:55PM 40.2619 -77.1142 102° East 408 470 20,000 -915 Descending New York Center
06:56PM 40.2450 -77.0039 101° East 398 458 19,200 -934 Descending New York Center
06:57PM 40.2175 -76.8492 103° East 393 452 18,100 -908 Descending New York Center
06:58PM 40.1950 -76.7194 103° East 381 438 17,400 -992 Descending New York Center
06:59PM 40.1703 -76.5842 103° East 358 412 16,100 -1,339 Descending New York Center
07:00PM 40.1492 -76.4631 103° East 345 397 14,700 -1,450 Descending New York Center
07:01PM 40.1294 -76.3500 103° East 333 383 13,200 -1,350 Descending New York Center
07:02PM 40.1175 -76.2514 99° East 314 361 12,000 -1,261 Descending New York Center
07:03PM 40.1106 -76.1286 94° East 309 356 10,700 -1,190 Descending New York Center
07:04PM 40.1133 -76.0228 88° East 304 350 9,600 -992 Descending New York Center
07:05PM 40.1425 -75.9272 68° East 279 321 8,700 -908 Descending New York Center
07:06PM 40.1625 -75.8500 71° East 259 298 7,800 -857 Descending New York Center
07:07PM 40.1772 -75.7478 79° East 254 292 7,000 -403 Descending New York Center
07:08PM 40.1892 -75.6644 79° East 254 292 7,000 50 Level New York Center
07:09PM 40.2097 -75.5708 74° East 260 299 7,100 49 Climbing New York Center
07:10PM 40.2217 -75.4792 80° East 260 299 7,100  Level New York Center
07:11PM 40.2383 -75.3769 78° East 255 293 7,100 -50 Level New York Center
07:12PM 40.2522 -75.2853 79° East 255 293 7,000 -550 Descending New York Center
07:13PM 40.2083 -75.2364 140° Southeast 216 249 6,000 -508 Descending New York Center
07:14PM 40.1400 -75.2239 172° South 221 254 6,000  Level New York Center
07:15PM 40.0833 -75.2167 174° South 208 239 6,000  Level Philadelphia TRACON
07:16PM 40.0333 -75.2000 166° South 213 245 6,000  Level Philadelphia TRACON
07:17PM 39.9833 -75.1667 153° Southeast 229 264 6,000 -48 Level Philadelphia TRACON
07:18PM 40.0000 -75.0833 75° East 226 260 5,900 -300 Descending Philadelphia TRACON
07:19PM 40.0000 -75.0167 90° East 210 242 5,400 -474 Descending Philadelphia TRACON
07:20PM 40.0167 -74.9500 72° East 196 226 5,000 -645 Descending Philadelphia TRACON
07:21PM 40.0000 -74.9000 114° Southeast 207 238 4,100 -1,000 Descending Philadelphia TRACON
07:22PM 39.9500 -74.9333 207° Southwest 189 217 3,000 -555 Descending Philadelphia TRACON
07:23PM 39.9167 -74.9833 229° Southwest 194 223 3,000 -100 Level Philadelphia TRACON
07:24PM 39.9167 -75.0500 270° West 191 220 2,800 -595 Descending Philadelphia TRACON
07:25PM 39.9000 -75.1167 252° West 168 193 1,800 -900 Descending Philadelphia TRACON
07:26PM 39.8833 -75.1667 247° West 142 163 1,000 -807 Descending Philadelphia TRACON
07:27PM 39.8833 -75.2167 270° West 144 166 200 -800 Descending Philadelphia TRACON

Login

Don't have an account? Register now (free) for customized features, flight alerts, and more!